Time;durP1;ratioP1;P1;durP2;ratioP2;P2;SDS_P1;SDS_P2;PMS_P1;PMS_P2;Temp;Humidity;BMP_temperature;BMP_pressure;BME280_temperature;BME280_humidity;BME280_pressure;Samples;Min_cycle;Max_cycle;Signal;HPM_P1;HPM_P2
2022/04/03 00:00:07;;;;;;;0.60;0.60;;;17.30;36.60;;;;;;5106579;27;45320;-77
2022/04/03 00:02:34;;;;;;;0.82;0.60;;;17.30;37.70;;;;;;5104685;27;45355;-77
2022/04/03 00:05:00;;;;;;;0.60;0.60;;;17.40;38.70;;;;;;5111229;27;45276;-77
2022/04/03 00:07:27;;;;;;;0.77;0.68;;;17.40;38.80;;;;;;5109241;27;45397;-77
2022/04/03 00:09:54;;;;;;;0.60;0.60;;;17.40;39.10;;;;;;5105482;27;46569;-77
2022/04/03 00:12:23;;;;;;;1.08;0.73;;;17.40;39.40;;;;;;5108637;27;45199;-77
2022/04/03 00:14:50;;;;;;;0.88;0.65;;;17.40;39.40;;;;;;5101881;27;45416;-77
2022/04/03 00:17:17;;;;;;;1.15;0.63;;;17.40;39.30;;;;;;5109451;27;45305;-77
2022/04/03 00:19:44;;;;;;;1.52;1.00;;;17.40;39.50;;;;;;5110168;27;46538;-78
2022/04/03 00:22:11;;;;;;;1.02;0.70;;;17.40;39.50;;;;;;5108003;27;45581;-77
2022/04/03 00:24:38;;;;;;;0.70;0.60;;;17.40;40.60;;;;;;5111640;27;45124;-78
2022/04/03 00:27:05;;;;;;;1.23;0.82;;;17.40;39.10;;;;;;5107210;27;45360;-77
2022/04/03 00:29:34;;;;;;;1.15;0.80;;;17.40;38.80;;;;;;5108248;27;45306;-77
2022/04/03 00:32:02;;;;;;;0.70;0.63;;;17.40;38.40;;;;;;5099600;27;45236;-77
2022/04/03 00:34:30;;;;;;;1.00;0.80;;;17.40;38.50;;;;;;5111726;27;45496;-77
2022/04/03 00:36:56;;;;;;;0.90;0.57;;;17.40;38.60;;;;;;5109410;27;45371;-77
2022/04/03 00:39:23;;;;;;;1.58;1.00;;;17.30;38.50;;;;;;5108994;27;47458;-77
2022/04/03 00:41:50;;;;;;;0.82;0.73;;;17.30;38.50;;;;;;5108676;27;45338;-77
2022/04/03 00:44:18;;;;;;;0.85;0.68;;;17.30;38.50;;;;;;5106007;27;45398;-77
2022/04/03 00:46:47;;;;;;;1.13;0.80;;;17.30;38.40;;;;;;5109485;27;45285;-77
2022/04/03 00:49:14;;;;;;;1.05;0.75;;;17.30;38.40;;;;;;5108219;27;47612;-78
2022/04/03 00:51:41;;;;;;;1.58;0.82;;;17.60;39.00;;;;;;5107193;27;45296;-77
2022/04/03 00:54:08;;;;;;;1.25;0.73;;;17.30;38.80;;;;;;5111019;27;45285;-78
2022/04/03 00:56:36;;;;;;;0.70;0.70;;;17.40;39.60;;;;;;5108439;27;45360;-77
2022/04/03 00:59:03;;;;;;;1.50;0.95;;;17.40;39.80;;;;;;5107554;27;45269;-77
2022/04/03 01:01:30;;;;;;;1.88;0.80;;;17.40;40.20;;;;;;5106112;27;45088;-77
2022/04/03 01:03:59;;;;;;;1.15;0.70;;;17.40;40.10;;;;;;5109604;27;45169;-77
2022/04/03 01:06:28;;;;;;;1.27;0.80;;;17.40;40.20;;;;;;5109093;27;45333;-77
2022/04/03 01:08:54;;;;;;;0.80;0.65;;;17.40;40.20;;;;;;5108415;27;45397;-77
2022/04/03 01:11:22;;;;;;;0.95;0.77;;;17.40;40.30;;;;;;5108738;27;45153;-77
2022/04/03 01:13:51;;;;;;;1.13;0.80;;;17.40;40.30;;;;;;5109790;27;45338;-78
2022/04/03 01:16:18;;;;;;;1.80;1.00;;;17.40;40.10;;;;;;5107022;27;45169;-77
2022/04/03 01:18:45;;;;;;;1.30;0.88;;;17.40;40.00;;;;;;5104967;27;46214;-77
2022/04/03 01:21:14;;;;;;;1.60;0.93;;;17.30;39.90;;;;;;5107255;27;45181;-77
2022/04/03 01:23:41;;;;;;;1.73;0.80;;;17.30;40.70;;;;;;5110944;27;45353;-77
2022/04/03 01:26:10;;;;;;;1.10;0.80;;;17.30;39.60;;;;;;5111097;27;45411;-78
2022/04/03 01:28:37;;;;;;;0.82;0.70;;;17.30;39.60;;;;;;5101071;27;45987;-77
2022/04/03 01:31:04;;;;;;;1.23;0.70;;;17.30;39.50;;;;;;5108608;27;45513;-77
2022/04/03 01:33:31;;;;;;;1.85;0.82;;;17.30;39.60;;;;;;5107499;27;45268;-77
2022/04/03 01:35:58;;;;;;;1.73;0.90;;;17.30;39.50;;;;;;5109231;27;45451;-77
2022/04/03 01:38:24;;;;;;;1.30;0.85;;;17.30;39.60;;;;;;5108849;27;46731;-78
2022/04/03 01:40:51;;;;;;;0.90;0.70;;;17.30;39.60;;;;;;5103809;27;46228;-77
2022/04/03 01:43:19;;;;;;;1.30;0.90;;;17.30;39.70;;;;;;5110151;27;45188;-77
2022/04/03 01:45:46;;;;;;;1.70;0.73;;;17.30;39.80;;;;;;5095900;27;45258;-77
2022/04/03 01:48:13;;;;;;;1.48;0.65;;;17.30;40.40;;;;;;5107694;27;46512;-78
2022/04/03 01:50:40;;;;;;;1.23;0.70;;;17.30;40.40;;;;;;5108292;27;45164;-77
2022/04/03 01:53:07;;;;;;;1.30;0.70;;;17.30;40.40;;;;;;5106835;27;45276;-77
2022/04/03 01:55:34;;;;;;;1.08;0.82;;;17.30;40.60;;;;;;5108589;27;45146;-77
2022/04/03 01:58:06;;;;;;;1.60;0.80;;;17.30;40.60;;;;;;5105868;27;46645;-77
2022/04/03 02:00:35;;;;;;;1.25;0.70;;;17.40;40.70;;;;;;5101605;27;45176;-77
2022/04/03 02:03:02;;;;;;;1.48;0.77;;;17.40;40.70;;;;;;5109958;27;45540;-77
2022/04/03 02:05:28;;;;;;;1.92;1.05;;;17.40;40.80;;;;;;5109377;27;45180;-77
2022/04/03 02:07:55;;;;;;;0.77;0.73;;;17.40;40.70;;;;;;5106723;27;45432;-77
2022/04/03 02:10:22;;;;;;;2.67;0.70;;;17.40;40.30;;;;;;5108636;27;45177;-77
2022/04/03 02:12:49;;;;;;;1.00;0.77;;;17.30;40.10;;;;;;5107137;27;45172;-77
2022/04/03 02:15:16;;;;;;;0.90;0.70;;;17.30;39.90;;;;;;5105192;27;45228;-77
2022/04/03 02:17:44;;;;;;;1.88;1.10;;;17.30;39.80;;;;;;5105654;27;48193;-77
2022/04/03 02:20:12;;;;;;;1.85;0.65;;;17.30;39.70;;;;;;5108159;27;45176;-78
2022/04/03 02:22:39;;;;;;;1.25;0.60;;;17.30;39.50;;;;;;5107541;27;45296;-77
2022/04/03 02:25:09;;;;;;;1.08;0.80;;;17.30;39.20;;;;;;5109258;27;45239;-77
2022/04/03 02:27:36;;;;;;;1.33;0.65;;;17.30;39.20;;;;;;5103488;27;45702;-77
2022/04/03 02:30:05;;;;;;;1.10;0.77;;;17.30;39.30;;;;;;5099391;27;45199;-77
2022/04/03 02:32:32;;;;;;;0.80;0.57;;;17.30;39.60;;;;;;5107498;27;45307;-77
2022/04/03 02:35:01;;;;;;;1.10;0.82;;;17.30;39.50;;;;;;5109790;27;45205;-77
2022/04/03 02:37:27;;;;;;;1.40;0.82;;;17.30;39.60;;;;;;5106945;27;47013;-77
2022/04/03 02:39:54;;;;;;;1.15;0.63;;;17.30;40.00;;;;;;5106773;27;45168;-77
2022/04/03 02:42:21;;;;;;;1.20;0.73;;;17.30;40.60;;;;;;5104080;27;45315;-77
2022/04/03 02:44:48;;;;;;;3.33;1.00;;;17.30;40.50;;;;;;5102246;27;45502;-78
2022/04/03 02:47:15;;;;;;;0.75;0.75;;;17.30;40.40;;;;;;5090263;27;46556;-77
2022/04/03 02:49:42;;;;;;;1.00;0.70;;;17.30;40.40;;;;;;5106779;27;45471;-77
2022/04/03 02:52:11;;;;;;;0.90;0.80;;;17.30;40.50;;;;;;5109239;27;45195;-77
2022/04/03 02:54:38;;;;;;;2.92;0.82;;;17.30;40.30;;;;;;5103822;27;45460;-77
2022/04/03 02:57:05;;;;;;;1.00;0.60;;;17.40;40.40;;;;;;5107372;27;47921;-78
2022/04/03 02:59:33;;;;;;;0.90;0.63;;;17.40;40.60;;;;;;5106072;27;45902;-77
2022/04/03 03:02:00;;;;;;;1.20;0.80;;;17.40;40.10;;;;;;5104565;27;45298;-78
2022/04/03 03:04:27;;;;;;;0.95;0.70;;;17.30;39.60;;;;;;5107605;27;45407;-77
2022/04/03 03:06:54;;;;;;;1.23;0.70;;;17.30;39.30;;;;;;5107902;27;47392;-78
2022/04/03 03:09:22;;;;;;;0.88;0.80;;;17.30;39.50;;;;;;5097685;27;45359;-78
2022/04/03 03:11:49;;;;;;;1.00;0.80;;;17.30;39.20;;;;;;5106129;27;45269;-77
2022/04/03 03:14:16;;;;;;;1.27;0.77;;;17.30;39.50;;;;;;5108473;27;45533;-77
2022/04/03 03:16:43;;;;;;;1.75;0.80;;;17.30;39.30;;;;;;5107328;27;47552;-77
2022/04/03 03:19:09;;;;;;;1.10;0.80;;;17.30;39.20;;;;;;5101157;27;45220;-77
2022/04/03 03:21:36;;;;;;;1.10;0.63;;;17.30;39.50;;;;;;5108152;27;45477;-78
2022/04/03 03:24:03;;;;;;;0.95;0.70;;;17.30;39.00;;;;;;5108226;27;45394;-78
2022/04/03 03:26:31;;;;;;;1.30;0.77;;;17.30;39.10;;;;;;5108392;27;45137;-78
2022/04/03 03:28:58;;;;;;;1.25;0.77;;;17.20;38.80;;;;;;5103878;27;45209;-78
2022/04/03 03:31:25;;;;;;;1.27;0.70;;;17.30;39.00;;;;;;5095468;27;45396;-78
2022/04/03 03:33:52;;;;;;;1.08;0.77;;;17.30;39.80;;;;;;5102275;27;45202;-78
2022/04/03 03:36:18;;;;;;;1.10;0.73;;;17.30;40.20;;;;;;5107581;27;47559;-78
2022/04/03 03:38:45;;;;;;;1.63;0.85;;;17.30;40.30;;;;;;5106526;27;45574;-78
2022/04/03 03:41:14;;;;;;;1.05;0.77;;;17.30;40.00;;;;;;5105225;27;45350;-78
2022/04/03 03:43:42;;;;;;;0.77;0.52;;;17.30;40.10;;;;;;5109564;27;45536;-77
2022/04/03 03:46:10;;;;;;;1.75;0.90;;;17.30;40.10;;;;;;5106399;27;47961;-77
2022/04/03 03:48:37;;;;;;;1.08;0.70;;;17.30;39.90;;;;;;5104225;27;45219;-77
2022/04/03 03:51:04;;;;;;;1.52;0.80;;;17.30;40.10;;;;;;5105656;27;45184;-77
2022/04/03 03:53:31;;;;;;;1.05;0.73;;;17.30;39.60;;;;;;5107079;27;45149;-77
2022/04/03 03:55:58;;;;;;;1.10;0.85;;;17.30;39.60;;;;;;5106774;27;45387;-77
2022/04/03 03:58:26;;;;;;;1.08;0.75;;;17.30;39.20;;;;;;5097566;27;45127;-77
2022/04/03 04:00:54;;;;;;;1.58;0.93;;;17.30;39.10;;;;;;5107990;27;45490;-77
2022/04/03 04:03:21;;;;;;;1.17;0.80;;;17.30;39.10;;;;;;5097939;27;45693;-77
2022/04/03 04:05:48;;;;;;;1.35;0.80;;;17.30;39.00;;;;;;5107712;27;48231;-77
2022/04/03 04:08:14;;;;;;;1.85;0.90;;;17.30;38.80;;;;;;5104307;27;45321;-77
2022/04/03 04:10:41;;;;;;;1.00;0.80;;;17.30;38.90;;;;;;5102073;27;45316;-77
2022/04/03 04:13:08;;;;;;;0.98;0.65;;;17.30;38.80;;;;;;5103358;27;45437;-77
2022/04/03 04:15:35;;;;;;;1.58;0.85;;;17.30;38.60;;;;;;5105416;27;45282;-77
2022/04/03 04:18:03;;;;;;;1.85;0.93;;;17.20;38.60;;;;;;5103941;27;45831;-77
2022/04/03 04:20:30;;;;;;;1.17;0.80;;;17.20;38.70;;;;;;5106473;27;45256;-77
2022/04/03 04:22:57;;;;;;;1.00;0.70;;;17.20;38.50;;;;;;5104555;27;45452;-77
2022/04/03 04:25:23;;;;;;;1.02;0.70;;;17.20;39.30;;;;;;5107222;27;45333;-77
2022/04/03 04:27:50;;;;;;;0.88;0.68;;;17.20;39.40;;;;;;5105560;27;45255;-77
2022/04/03 04:30:17;;;;;;;1.38;0.80;;;17.30;39.50;;;;;;5101663;27;45261;-77
2022/04/03 04:32:45;;;;;;;0.75;0.60;;;17.30;39.60;;;;;;5104594;27;45448;-77
2022/04/03 04:35:14;;;;;;;0.95;0.80;;;17.30;39.40;;;;;;5097660;27;48144;-77
2022/04/03 04:37:42;;;;;;;1.20;0.73;;;17.30;39.50;;;;;;5103331;27;45697;-77
2022/04/03 04:40:10;;;;;;;2.15;0.75;;;17.30;39.60;;;;;;5106026;27;45331;-77
2022/04/03 04:42:37;;;;;;;0.93;0.65;;;17.30;39.60;;;;;;5103920;27;45306;-77
2022/04/03 04:45:06;;;;;;;1.48;1.00;;;17.30;39.60;;;;;;5106666;27;47298;-77
2022/04/03 04:47:35;;;;;;;1.05;0.68;;;17.30;38.60;;;;;;5104784;27;45201;-77
2022/04/03 04:50:06;;;;;;;1.63;0.70;;;17.30;38.40;;;;;;5103098;27;45194;-77
2022/04/03 04:52:34;;;;;;;1.27;0.90;;;17.30;38.10;;;;;;5104931;27;45412;-77
2022/04/03 04:55:01;;;;;;;1.33;0.90;;;17.30;37.70;;;;;;5108249;27;46329;-77
2022/04/03 04:57:27;;;;;;;2.33;0.98;;;17.30;37.40;;;;;;5112902;27;45261;-77
2022/04/03 04:59:54;;;;;;;1.75;1.00;;;17.30;37.40;;;;;;5104207;27;45321;-77
2022/04/03 05:02:21;;;;;;;2.85;0.90;;;17.20;37.20;;;;;;5102053;27;45159;-77
2022/04/03 05:04:48;;;;;;;1.45;0.90;;;17.20;37.00;;;;;;5104528;27;47419;-77
2022/04/03 05:07:14;;;;;;;1.02;0.70;;;17.20;36.70;;;;;;5109255;27;45150;-77
2022/04/03 05:09:43;;;;;;;0.88;0.77;;;17.20;37.10;;;;;;5104081;27;45393;-77
2022/04/03 05:12:12;;;;;;;1.63;0.95;;;17.20;37.60;;;;;;5105276;27;45442;-77
2022/04/03 05:14:39;;;;;;;3.10;0.77;;;17.20;37.60;;;;;;5104035;27;47323;-77
2022/04/03 05:17:06;;;;;;;0.80;0.73;;;17.20;37.60;;;;;;5097182;27;46912;-77
2022/04/03 05:19:33;;;;;;;0.85;0.60;;;17.20;38.70;;;;;;5107355;27;45533;-77
2022/04/03 05:22:00;;;;;;;0.82;0.70;;;17.20;38.70;;;;;;5105187;27;45609;-77
2022/04/03 05:24:27;;;;;;;1.80;0.77;;;17.20;39.40;;;;;;5101232;27;47433;-77
2022/04/03 05:26:56;;;;;;;0.43;0.38;;;17.30;40.00;;;;;;5096173;27;45690;-77
2022/04/03 05:29:23;;;;;;;2.60;0.70;;;17.30;39.30;;;;;;5107634;27;45163;-77
2022/04/03 05:31:50;;;;;;;1.13;0.80;;;17.30;39.10;;;;;;5106664;27;45471;-76
2022/04/03 05:34:17;;;;;;;1.38;0.77;;;17.30;39.10;;;;;;5104573;27;47924;-77
2022/04/03 05:36:44;;;;;;;1.25;0.50;;;17.30;38.70;;;;;;5103479;27;45257;-77
2022/04/03 05:39:11;;;;;;;1.58;0.60;;;17.30;38.80;;;;;;5105596;27;45242;-78
2022/04/03 05:41:38;;;;;;;1.63;0.68;;;17.30;38.90;;;;;;5107491;27;45281;-77
2022/04/03 05:44:07;;;;;;;2.40;0.70;;;17.20;38.50;;;;;;5109093;27;46569;-76
2022/04/03 05:46:34;;;;;;;0.85;0.60;;;17.20;38.40;;;;;;5109489;27;45229;-76
2022/04/03 05:49:01;;;;;;;1.00;0.65;;;17.20;38.50;;;;;;5107348;27;45125;-76
2022/04/03 05:51:29;;;;;;;1.90;0.85;;;17.20;38.30;;;;;;5107446;27;45447;-77
2022/04/03 05:53:56;;;;;;;3.88;0.80;;;17.20;37.80;;;;;;5107686;27;47692;-77
2022/04/03 05:56:27;;;;;;;0.50;0.50;;;17.20;38.00;;;;;;5106161;27;45280;-77
2022/04/03 05:58:54;;;;;;;0.60;0.60;;;17.20;37.90;;;;;;5104506;27;45342;-77
2022/04/03 06:01:22;;;;;;;1.67;0.75;;;17.20;37.90;;;;;;5106837;27;45511;-76
2022/04/03 06:03:49;;;;;;;1.05;0.70;;;17.10;37.80;;;;;;5097373;27;45484;-76
2022/04/03 06:06:16;;;;;;;1.00;0.60;;;17.10;37.90;;;;;;5104008;27;45431;-76
2022/04/03 06:08:43;;;;;;;2.45;0.70;;;17.20;37.90;;;;;;5106238;27;45241;-76
2022/04/03 06:11:10;;;;;;;0.60;0.60;;;17.20;38.70;;;;;;5105958;27;45483;-76
2022/04/03 06:13:37;;;;;;;1.20;0.70;;;17.20;38.70;;;;;;5106185;27;47926;-76
2022/04/03 06:16:04;;;;;;;1.13;0.70;;;17.20;38.70;;;;;;5099492;27;45258;-79
2022/04/03 06:18:32;;;;;;;0.88;0.60;;;17.20;38.60;;;;;;5098934;27;45495;-76
2022/04/03 06:20:59;;;;;;;0.85;0.52;;;17.20;38.60;;;;;;5106977;27;45223;-77
2022/04/03 06:23:26;;;;;;;0.93;0.65;;;17.20;38.80;;;;;;5106493;27;46524;-77
2022/04/03 06:25:55;;;;;;;1.00;0.63;;;17.20;38.80;;;;;;5106779;27;45189;-77
2022/04/03 06:28:22;;;;;;;0.90;0.63;;;17.20;38.80;;;;;;5100248;27;45273;-77
2022/04/03 06:30:49;;;;;;;1.23;0.90;;;17.20;38.50;;;;;;5106386;27;45298;-77
2022/04/03 06:33:17;;;;;;;1.33;0.82;;;17.20;38.50;;;;;;5104820;27;46618;-77
2022/04/03 06:35:46;;;;;;;1.85;0.70;;;17.20;37.80;;;;;;5100371;27;45357;-77
2022/04/03 06:38:14;;;;;;;1.05;0.63;;;17.20;37.90;;;;;;5102778;27;45255;-77
2022/04/03 06:40:48;;;;;;;0.90;0.70;;;17.20;37.90;;;;;;5105431;27;45271;-77
2022/04/03 06:43:17;;;;;;;0.90;0.70;;;17.20;38.10;;;;;;5107254;27;46531;-76
2022/04/03 06:45:44;;;;;;;1.48;0.70;;;17.10;38.00;;;;;;5105156;27;45224;-76
2022/04/03 06:48:11;;;;;;;1.13;0.70;;;17.10;37.80;;;;;;5101006;27;45214;-76
2022/04/03 06:50:38;;;;;;;1.25;0.80;;;17.10;37.70;;;;;;5103758;27;45495;-76
2022/04/03 06:53:06;;;;;;;1.90;0.70;;;17.10;37.70;;;;;;5106989;27;45242;-76
2022/04/03 06:55:33;;;;;;;1.63;0.70;;;17.20;38.10;;;;;;5106938;27;45211;-76
2022/04/03 06:58:00;;;;;;;1.70;0.85;;;17.10;37.90;;;;;;5107049;27;45627;-76
2022/04/03 07:00:27;;;;;;;1.08;0.68;;;17.10;37.90;;;;;;5102967;27;45227;-76
2022/04/03 07:02:54;;;;;;;0.90;0.70;;;17.20;38.50;;;;;;5103306;27;45338;-76
2022/04/03 07:05:21;;;;;;;1.02;0.77;;;17.20;38.70;;;;;;5101824;27;45258;-76
2022/04/03 07:07:51;;;;;;;0.73;0.65;;;17.20;38.80;;;;;;5107693;27;45227;-76
2022/04/03 07:10:19;;;;;;;0.73;0.50;;;17.20;38.80;;;;;;5103113;27;45608;-76
2022/04/03 07:12:46;;;;;;;0.82;0.55;;;17.20;38.80;;;;;;5106254;27;47102;-77
2022/04/03 07:15:13;;;;;;;3.10;0.70;;;17.20;38.80;;;;;;5108052;27;45236;-76
2022/04/03 07:17:40;;;;;;;1.20;0.70;;;17.20;38.70;;;;;;5103629;27;45337;-77
2022/04/03 07:20:09;;;;;;;2.00;0.80;;;17.30;40.30;;;;;;5107350;27;45436;-77
2022/04/03 07:22:36;;;;;;;0.90;0.70;;;17.30;39.30;;;;;;5104641;27;45236;-77
2022/04/03 07:25:03;;;;;;;1.17;0.75;;;17.30;38.50;;;;;;5102333;27;45136;-77
2022/04/03 07:27:32;;;;;;;1.20;0.70;;;17.20;38.30;;;;;;5108771;27;45304;-77
2022/04/03 07:29:59;;;;;;;1.58;0.77;;;17.20;38.50;;;;;;5106198;27;45376;-77
2022/04/03 07:32:26;;;;;;;3.15;0.80;;;17.20;38.10;;;;;;5105057;27;47163;-77
2022/04/03 07:34:53;;;;;;;1.52;0.75;;;17.20;38.50;;;;;;5098836;27;45377;-78
2022/04/03 07:37:20;;;;;;;1.70;0.65;;;17.20;42.60;;;;;;5099236;27;45335;-77
2022/04/03 07:39:47;;;;;;;1.70;0.70;;;17.40;43.30;;;;;;5103469;27;45573;-77
2022/04/03 07:42:14;;;;;;;1.92;0.90;;;17.30;40.60;;;;;;5106009;27;45552;-77
2022/04/03 07:44:42;;;;;;;1.25;0.70;;;17.30;40.60;;;;;;5106564;27;45156;-77
2022/04/03 07:47:09;;;;;;;2.55;0.90;;;17.30;41.40;;;;;;5086940;27;45790;-77
2022/04/03 07:49:36;;;;;;;5.18;1.35;;;17.30;40.80;;;;;;5101944;27;46454;-76
2022/04/03 07:52:04;;;;;;;2.70;1.20;;;17.40;42.00;;;;;;5107448;27;45249;-76
2022/04/03 07:54:30;;;;;;;2.72;0.95;;;17.40;42.10;;;;;;5101185;27;45229;-77
2022/04/03 07:56:57;;;;;;;3.60;0.90;;;17.50;42.50;;;;;;5102678;27;45362;-77
2022/04/03 07:59:24;;;;;;;3.28;1.10;;;17.50;42.40;;;;;;5104342;27;45466;-76
2022/04/03 08:01:52;;;;;;;1.70;0.88;;;17.50;42.00;;;;;;5100917;27;45364;-77
2022/04/03 08:04:19;;;;;;;3.47;1.20;;;17.50;42.50;;;;;;5104832;27;45254;-76
2022/04/03 08:06:46;;;;;;;2.30;1.02;;;17.60;42.70;;;;;;5105465;27;45648;-76
2022/04/03 08:09:13;;;;;;;1.80;0.95;;;17.60;42.50;;;;;;5104606;27;45265;-77
2022/04/03 08:11:42;;;;;;;3.75;1.35;;;17.60;42.60;;;;;;5101082;27;45357;-77
2022/04/03 08:14:09;;;;;;;4.45;1.10;;;17.60;42.40;;;;;;5107168;27;45315;-77
2022/04/03 08:16:36;;;;;;;2.65;1.10;;;17.60;41.70;;;;;;5098228;27;45399;-77
2022/04/03 08:19:06;;;;;;;2.40;1.00;;;17.50;40.40;;;;;;5104060;27;45297;-77
2022/04/03 08:21:32;;;;;;;3.15;0.90;;;17.40;40.10;;;;;;5092124;27;46184;-77
2022/04/03 08:23:59;;;;;;;2.10;1.00;;;17.40;38.90;;;;;;5104499;27;45316;-77
2022/04/03 08:26:26;;;;;;;3.97;0.80;;;17.30;38.90;;;;;;5111061;27;45229;-77
2022/04/03 08:28:53;;;;;;;4.88;0.90;;;17.30;39.10;;;;;;5099652;27;45349;-77
2022/04/03 08:31:20;;;;;;;2.33;0.90;;;17.30;38.90;;;;;;5110838;27;45485;-77
2022/04/03 08:33:47;;;;;;;1.73;0.90;;;17.30;38.80;;;;;;5100666;27;45279;-76
2022/04/03 08:36:16;;;;;;;3.42;1.08;;;17.30;38.00;;;;;;5104370;27;45346;-76
2022/04/03 08:38:43;;;;;;;1.08;0.60;;;17.30;38.10;;;;;;5100581;27;45502;-76
2022/04/03 08:41:10;;;;;;;1.60;0.57;;;17.30;38.00;;;;;;5109094;27;46468;-76
2022/04/03 08:43:38;;;;;;;1.77;0.80;;;17.30;37.70;;;;;;5102695;27;45209;-76
2022/04/03 08:46:07;;;;;;;2.78;0.90;;;17.30;37.80;;;;;;5099002;27;45371;-76
2022/04/03 08:48:35;;;;;;;1.30;0.60;;;17.30;38.70;;;;;;5107006;27;45411;-76
2022/04/03 08:51:04;;;;;;;1.17;0.70;;;17.30;38.30;;;;;;5103370;27;48465;-76
2022/04/03 08:53:33;;;;;;;1.10;0.75;;;17.30;38.60;;;;;;5108504;27;45167;-76
2022/04/03 08:56:00;;;;;;;0.85;0.65;;;17.40;38.70;;;;;;5109748;27;45224;-78
2022/04/03 08:58:27;;;;;;;1.10;0.70;;;17.40;38.80;;;;;;5106442;27;45255;-78
2022/04/03 09:00:55;;;;;;;1.52;0.80;;;17.40;38.80;;;;;;5101843;27;46295;-78
2022/04/03 09:03:22;;;;;;;1.05;0.60;;;17.40;38.50;;;;;;5104313;27;45867;-78
2022/04/03 09:05:49;;;;;;;5.47;0.65;;;17.40;38.70;;;;;;5102899;27;45364;-78
2022/04/03 09:08:15;;;;;;;1.67;0.70;;;17.40;38.80;;;;;;5106507;27;45223;-78
2022/04/03 09:11:05;;;;;;;1.23;0.60;;;17.40;38.50;;;;;;5107093;27;47844;-78
2022/04/03 09:13:32;;;;;;;0.60;0.60;;;17.30;38.50;;;;;;5103380;27;45336;-78
2022/04/03 09:15:59;;;;;;;0.85;0.60;;;17.30;38.10;;;;;;5102070;27;45288;-78
2022/04/03 09:18:43;;;;;;;1.52;0.68;;;17.30;38.50;;;;;;5105267;27;45276;-78
2022/04/03 09:21:16;;;;;;;1.55;0.63;;;17.30;38.10;;;;;;5104132;27;46193;-78
2022/04/03 09:23:57;;;;;;;1.30;0.85;;;17.30;38.00;;;;;;5105695;27;45284;-78
2022/04/03 09:26:25;;;;;;;2.45;0.75;;;17.30;38.10;;;;;;5104438;27;45490;-78
2022/04/03 09:29:07;;;;;;;1.13;0.50;;;17.30;38.40;;;;;;5109440;27;45245;-78
2022/04/03 09:31:34;;;;;;;1.25;0.70;;;17.30;38.40;;;;;;5111738;27;47417;-78
2022/04/03 09:34:01;;;;;;;2.38;0.73;;;17.30;38.40;;;;;;5100328;27;45321;-78
2022/04/03 09:36:30;;;;;;;0.68;0.50;;;17.30;37.70;;;;;;5101759;27;45297;-77
2022/04/03 09:39:07;;;;;;;3.38;0.60;;;17.30;37.70;;;;;;5102408;27;45350;-78
2022/04/03 09:41:54;;;;;;;3.40;0.57;;;17.30;37.90;;;;;;5109023;27;47678;-78
2022/04/03 09:44:25;;;;;;;1.00;0.70;;;17.30;38.20;;;;;;5097213;27;45648;-78
2022/04/03 09:47:30;;;;;;;2.17;0.68;;;17.30;37.70;;;;;;5095988;27;45382;-77
2022/04/03 09:49:58;;;;;;;0.40;0.30;;;17.40;37.80;;;;;;5104150;27;45343;-77
2022/04/03 09:52:39;;;;;;;1.10;0.70;;;17.40;37.80;;;;;;5109744;27;47067;-78
2022/04/03 09:55:19;;;;;;;1.35;0.80;;;17.40;37.70;;;;;;5108268;27;45116;-78
2022/04/03 09:57:48;;;;;;;0.95;0.60;;;17.40;37.60;;;;;;5106598;27;45407;-78
2022/04/03 10:00:29;;;;;;;0.60;0.40;;;17.40;37.80;;;;;;5107692;27;45286;-78
2022/04/03 10:03:00;;;;;;;0.52;0.40;;;17.40;37.40;;;;;;5103140;27;45442;-78
2022/04/03 10:05:29;;;;;;;2.28;0.40;;;17.40;37.50;;;;;;5107067;27;45676;-78
2022/04/03 10:07:58;;;;;;;0.82;0.50;;;17.30;37.40;;;;;;5105648;27;45651;-76
2022/04/03 10:10:26;;;;;;;0.95;0.60;;;17.30;36.80;;;;;;5099960;27;45329;-78
2022/04/03 10:12:54;;;;;;;1.83;0.40;;;17.30;37.70;;;;;;5097965;27;47421;-78
2022/04/03 10:15:21;;;;;;;1.08;0.57;;;17.30;37.00;;;;;;5106476;27;45198;-78
2022/04/03 10:17:48;;;;;;;0.50;0.40;;;17.30;37.70;;;;;;5108715;27;45257;-78
2022/04/03 10:20:15;;;;;;;0.73;0.47;;;17.30;38.00;;;;;;5094386;27;45436;-78
2022/04/03 10:22:45;;;;;;;0.65;0.47;;;17.30;38.20;;;;;;5106778;27;45298;-78
2022/04/03 10:25:15;;;;;;;0.88;0.47;;;17.30;38.10;;;;;;5106707;27;45330;-78
2022/04/03 10:27:45;;;;;;;1.58;0.68;;;17.40;38.00;;;;;;5108687;27;45092;-77
2022/04/03 10:30:17;;;;;;;0.47;0.30;;;17.40;38.20;;;;;;5105551;27;45442;-78
2022/04/03 10:32:57;;;;;;;0.65;0.30;;;17.40;38.40;;;;;;5107124;27;48183;-78
2022/04/03 10:35:24;;;;;;;0.43;0.28;;;17.40;38.40;;;;;;5104228;27;45428;-77
2022/04/03 10:38:00;;;;;;;1.38;0.52;;;17.40;38.20;;;;;;5103283;27;45172;-77
2022/04/03 10:40:32;;;;;;;1.02;0.52;;;17.40;38.10;;;;;;5102067;27;45392;-78
2022/04/03 10:43:02;;;;;;;0.65;0.50;;;17.30;37.70;;;;;;5102304;27;46298;-78
2022/04/03 10:45:32;;;;;;;0.93;0.60;;;17.30;37.70;;;;;;5105359;27;45228;-78
2022/04/03 10:48:26;;;;;;;0.80;0.60;;;17.30;37.00;;;;;;5105444;27;45281;-78
2022/04/03 10:51:08;;;;;;;0.50;0.47;;;17.30;37.00;;;;;;5105190;27;45333;-77
2022/04/03 10:53:36;;;;;;;1.35;0.65;;;17.30;36.90;;;;;;5105824;27;46422;-78
2022/04/03 10:56:07;;;;;;;0.50;0.45;;;17.30;37.40;;;;;;5105904;27;45733;-77
2022/04/03 10:58:43;;;;;;;1.63;0.60;;;17.30;37.70;;;;;;5103346;27;45158;-78
2022/04/03 11:01:23;;;;;;;1.15;0.50;;;17.30;38.20;;;;;;5106427;27;45537;-78
2022/04/03 11:04:01;;;;;;;0.47;0.35;;;17.30;38.00;;;;;;5103593;27;46340;-78
2022/04/03 11:06:33;;;;;;;0.95;0.60;;;17.30;38.40;;;;;;5101385;27;45275;-79
2022/04/03 11:09:10;;;;;;;1.25;0.50;;;17.30;38.10;;;;;;5105263;27;45254;-78
2022/04/03 11:11:53;;;;;;;1.20;0.40;;;17.40;37.70;;;;;;5108036;27;45300;-79
2022/04/03 11:14:48;;;;;;;0.57;0.40;;;17.40;37.70;;;;;;5097380;27;45455;-79
2022/04/03 11:17:17;;;;;;;1.17;0.47;;;17.40;37.90;;;;;;5105222;27;45192;-79
2022/04/03 11:19:45;;;;;;;1.65;0.40;;;17.50;37.90;;;;;;5102350;27;45879;-79
2022/04/03 11:22:15;;;;;;;0.60;0.50;;;17.40;38.10;;;;;;5105251;27;45473;-77
2022/04/03 11:24:42;;;;;;;0.43;0.32;;;17.40;37.70;;;;;;5101399;27;45242;-77
2022/04/03 11:27:10;;;;;;;0.82;0.40;;;17.40;38.10;;;;;;5104086;27;45353;-77
2022/04/03 11:29:37;;;;;;;0.40;0.30;;;17.40;37.80;;;;;;5102463;27;46387;-77
2022/04/03 11:32:07;;;;;;;0.35;0.30;;;17.40;37.80;;;;;;5103861;27;45495;-77
2022/04/03 11:34:36;;;;;;;0.65;0.40;;;17.40;37.70;;;;;;5100805;27;47417;-77
2022/04/03 11:37:05;;;;;;;0.38;0.30;;;17.40;37.50;;;;;;5105474;27;45396;-77
2022/04/03 11:39:34;;;;;;;0.80;0.28;;;17.30;37.70;;;;;;5105778;27;45346;-77
2022/04/03 11:42:07;;;;;;;0.88;0.22;;;17.30;37.80;;;;;;5104781;27;45285;-77
2022/04/03 11:44:35;;;;;;;0.65;0.32;;;17.30;39.10;;;;;;5105567;27;47135;-78
2022/04/03 11:47:03;;;;;;;0.52;0.35;;;17.30;37.80;;;;;;5103991;27;45407;-77
2022/04/03 11:49:32;;;;;;;0.77;0.40;;;17.30;37.70;;;;;;5100131;27;45162;-77
2022/04/03 11:52:07;;;;;;;0.52;0.30;;;17.30;37.70;;;;;;5107020;27;45399;-77
2022/04/03 11:54:36;;;;;;;0.70;0.30;;;17.40;38.30;;;;;;5104694;27;46452;-77
2022/04/03 11:57:05;;;;;;;1.30;0.30;;;17.30;38.10;;;;;;5104455;27;45781;-79
2022/04/03 11:59:35;;;;;;;1.02;0.50;;;17.40;38.00;;;;;;5107994;27;45355;-77
2022/04/03 12:02:10;;;;;;;3.60;0.57;;;17.40;37.80;;;;;;5101143;27;45431;-79
2022/04/03 12:04:39;;;;;;;9.15;0.60;;;17.40;40.10;;;;;;5109606;27;45310;-78
2022/04/03 12:07:13;;;;;;;7.43;0.70;;;17.50;40.20;;;;;;5106960;27;45599;-79
2022/04/03 12:09:41;;;;;;;4.28;0.40;;;17.50;40.10;;;;;;5108582;27;45179;-78
2022/04/03 12:12:10;;;;;;;5.53;0.60;;;17.60;42.00;;;;;;5107568;27;45487;-78
2022/04/03 12:14:39;;;;;;;1.55;0.40;;;17.60;42.30;;;;;;5108271;27;45926;-77
2022/04/03 12:17:06;;;;;;;0.65;0.30;;;17.70;42.30;;;;;;5107741;27;45531;-79
2022/04/03 12:19:36;;;;;;;1.05;0.30;;;17.60;40.60;;;;;;5108355;27;45497;-78
2022/04/03 12:22:04;;;;;;;2.70;0.50;;;17.60;40.60;;;;;;5110496;27;45233;-78
2022/04/03 12:24:34;;;;;;;0.98;0.40;;;17.50;40.30;;;;;;5107060;27;46332;-78
2022/04/03 12:27:02;;;;;;;4.95;0.52;;;17.40;39.60;;;;;;5100604;27;45119;-77
2022/04/03 12:29:31;;;;;;;2.00;0.30;;;17.40;39.60;;;;;;5096474;27;45763;-77
2022/04/03 12:32:03;;;;;;;0.68;0.30;;;17.40;39.50;;;;;;5103573;27;45254;-78
2022/04/03 12:34:31;;;;;;;0.75;0.30;;;17.30;39.70;;;;;;5099262;27;46187;-77
2022/04/03 12:37:00;;;;;;;0.43;0.30;;;17.30;39.50;;;;;;5106520;27;45238;-77
2022/04/03 12:39:46;;;;;;;1.45;0.63;;;17.30;39.60;;;;;;5105729;27;45436;-77
2022/04/03 12:42:19;;;;;;;0.77;0.30;;;17.30;39.70;;;;;;5109894;27;45233;-77
2022/04/03 12:44:49;;;;;;;1.40;0.40;;;17.30;39.40;;;;;;5108256;27;47296;-77
2022/04/03 12:47:18;;;;;;;1.15;0.20;;;17.40;39.60;;;;;;5099233;27;45315;-78
2022/04/03 12:49:49;;;;;;;1.55;0.30;;;17.40;39.40;;;;;;5108216;27;45361;-77
2022/04/03 12:52:21;;;;;;;0.40;0.30;;;17.40;39.60;;;;;;5110964;27;45309;-78
2022/04/03 12:54:49;;;;;;;0.32;0.20;;;17.40;39.20;;;;;;5107505;27;45439;-78